Observation data for Tatum on 02/12/2019      Previous  Date  Next       Current Mesonet Observations  Soil Data  Daily Summary Page  Observations in Plain Language
KTAT 120600Z 30019G25KT 04/M11 A3008 RMK A01 T00351114  RH  033%=      5-min Rain = 0
KTAT 120605Z 31018KT 04/M11 A3009 RMK A01 T00351114  RH  033%=      5-min Rain = 0
KTAT 120610Z 31018G24KT 03/M11 A3009 RMK A01 T00341114  RH  033%=      5-min Rain = 0
KTAT 120615Z 31017G22KT 03/M11 A3009 RMK A01 T00321114  RH  033%=      5-min Rain = 0
KTAT 120620Z 31018KT 03/M11 A301 RMK A01 T00301114  RH  034%=      5-min Rain = 0
KTAT 120625Z 31017KT 03/M11 A301 RMK A01 T00291114  RH  034%=      5-min Rain = 0
KTAT 120630Z 31014KT 03/M11 A301 RMK A01 T00261114  RH  035%=      5-min Rain = 0
KTAT 120635Z 31015G20KT 02/M11 A3011 RMK A01 T00231114  RH  035%=      5-min Rain = 0
KTAT 120640Z 31014KT 02/M11 A3011 RMK A01 T00221113  RH  036%=      5-min Rain = 0
KTAT 120645Z 31013KT 02/M11 A3011 RMK A01 T00191113  RH  037%=      5-min Rain = 0
KTAT 120650Z 31014KT 02/M11 A3011 RMK A01 T00181112  RH  038%=      5-min Rain = 0
KTAT 120655Z 31013KT 02/M11 A3012 RMK A01 T00151111  RH  039%=      5-min Rain = 0
KTAT 120700Z 32013KT 01/M11 A3012 RMK A01 T00131110  RH  039%=      5-min Rain = 0
KTAT 120705Z 31013KT 01/M11 A3012 RMK A01 T00131110  RH  039%=      5-min Rain = 0
KTAT 120710Z 32011KT 01/M11 A3012 RMK A01 T00111110  RH  040%=      5-min Rain = 0
KTAT 120715Z 32010KT 01/M11 A3013 RMK A01 T00081109  RH  041%=      5-min Rain = 0
KTAT 120720Z 32009KT 01/M11 A3013 RMK A01 T00061109  RH  042%=      5-min Rain = 0
KTAT 120725Z 30009KT 00/M11 A3013 RMK A01 T00021109  RH  043%=      5-min Rain = 0
KTAT 120730Z 30008KT M00/M11 A3014 RMK A01 T10021110  RH  044%=      5-min Rain = 0
KTAT 120735Z 29008KT M01/M11 A3014 RMK A01 T10091111  RH  046%=      5-min Rain = 0
KTAT 120740Z 29009KT M01/M11 A3015 RMK A01 T10141111  RH  047%=      5-min Rain = 0
KTAT 120745Z 29011KT M02/M11 A3014 RMK A01 T10171110  RH  049%=      5-min Rain = 0
KTAT 120750Z 30010KT M02/M11 A3014 RMK A01 T10151109  RH  049%=      5-min Rain = 0
KTAT 120755Z 29009KT M01/M11 A3014 RMK A01 T10141109  RH  048%=      5-min Rain = 0
KTAT 120800Z 29009KT M02/M11 A3015 RMK A01 T10161109  RH  049%=      5-min Rain = 0
KTAT 120805Z 29008KT M02/M11 A3015 RMK A01 T10181110  RH  049%=      5-min Rain = 0
KTAT 120810Z 29007KT M02/M11 A3016 RMK A01 T10201110  RH  050%=      5-min Rain = 0
KTAT 120815Z 30007KT M02/M11 A3016 RMK A01 T10231110  RH  051%=      5-min Rain = 0
KTAT 120820Z 29009KT M03/M11 A3017 RMK A01 T10251110  RH  052%=      5-min Rain = 0
KTAT 120825Z 29010KT M03/M11 A3017 RMK A01 T10251110  RH  052%=      5-min Rain = 0
KTAT 120830Z 29009KT M03/M11 A3016 RMK A01 T10261110  RH  052%=      5-min Rain = 0
KTAT 120835Z 29009KT M03/M11 A3017 RMK A01 T10261110  RH  052%=      5-min Rain = 0
KTAT 120840Z 29009KT M03/M11 A3017 RMK A01 T10281110  RH  053%=      5-min Rain = 0
KTAT 120845Z 29009KT M03/M11 A3017 RMK A01 T10291110  RH  054%=      5-min Rain = 0
KTAT 120850Z 30009KT M03/M11 A3017 RMK A01 T10291109  RH  054%=      5-min Rain = 0
KTAT 120855Z 30009KT M03/M11 A3017 RMK A01 T10291110  RH  054%=      5-min Rain = 0
KTAT 120900Z 30008KT M03/M11 A3017 RMK A01 T10321110  RH  054%=      5-min Rain = 0
KTAT 120905Z 30008KT M03/M11 A3017 RMK A01 T10341110  RH  055%=      5-min Rain = 0
KTAT 120910Z 30008KT M04/M11 A3018 RMK A01 T10361110  RH  056%=      5-min Rain = 0
KTAT 120915Z 30009KT M04/M11 A3018 RMK A01 T10381110  RH  057%=      5-min Rain = 0
KTAT 120920Z 30009KT M04/M11 A3018 RMK A01 T10401110  RH  058%=      5-min Rain = 0
KTAT 120925Z 30010KT M04/M11 A3018 RMK A01 T10391109  RH  058%=      5-min Rain = 0
KTAT 120930Z 30010KT M04/M11 A3018 RMK A01 T10371109  RH  057%=      5-min Rain = 0
KTAT 120935Z 30009KT M04/M11 A3018 RMK A01 T10371108  RH  057%=      5-min Rain = 0
KTAT 120940Z 31008KT M04/M11 A3018 RMK A01 T10351108  RH  057%=      5-min Rain = 0
KTAT 120945Z 31007KT M04/M11 A3018 RMK A01 T10371109  RH  057%=      5-min Rain = 0
KTAT 120950Z 31008KT M04/M11 A3019 RMK A01 T10411110  RH  058%=      5-min Rain = 0
KTAT 120955Z 32008KT M05/M11 A3019 RMK A01 T10451111  RH  060%=      5-min Rain = 0
KTAT 121000Z 32009KT M05/M11 A3019 RMK A01 T10461110  RH  061%=      5-min Rain = 0
KTAT 121005Z 32009KT M05/M11 A3019 RMK A01 T10471111  RH  061%=      5-min Rain = 0
KTAT 121010Z 32009KT M05/M11 A3019 RMK A01 T10471111  RH  061%=      5-min Rain = 0
KTAT 121015Z 32008KT M05/M11 A3019 RMK A01 T10461110  RH  061%=      5-min Rain = 0
KTAT 121020Z 32006KT M05/M11 A3019 RMK A01 T10491112  RH  061%=      5-min Rain = 0
KTAT 121025Z 27005KT M06/M11 A302 RMK A01 T10571114  RH  063%=      5-min Rain = 0
KTAT 121030Z 26007KT M07/M12 A302 RMK A01 T10651116  RH  067%=      5-min Rain = 0
KTAT 121035Z 28007KT M07/M11 A302 RMK A01 T10651114  RH  068%=      5-min Rain = 0
KTAT 121040Z 28008KT M07/M11 A302 RMK A01 T10651114  RH  068%=      5-min Rain = 0
KTAT 121045Z 29008KT M07/M11 A302 RMK A01 T10651113  RH  068%=      5-min Rain = 0
KTAT 121050Z 29008KT M07/M11 A302 RMK A01 T10651113  RH  068%=      5-min Rain = 0
KTAT 121055Z 28009KT M07/M11 A302 RMK A01 T10661114  RH  069%=      5-min Rain = 0
KTAT 121100Z 27008KT M07/M11 A3021 RMK A01 T10671113  RH  069%=      5-min Rain = 0
KTAT 121105Z 28008KT M07/M11 A302 RMK A01 T10661112  RH  070%=      5-min Rain = 0
KTAT 121110Z 27007KT M07/M11 A3021 RMK A01 T10651111  RH  069%=      5-min Rain = 0
KTAT 121115Z 27008KT M07/M11 A3021 RMK A01 T10651112  RH  069%=      5-min Rain = 0
KTAT 121120Z 28008KT M07/M11 A3021 RMK A01 T10661112  RH  070%=      5-min Rain = 0
KTAT 121125Z 28008KT M07/M11 A3021 RMK A01 T10671112  RH  070%=      5-min Rain = 0
KTAT 121130Z 28007KT M07/M11 A3021 RMK A01 T10681113  RH  070%=      5-min Rain = 0
KTAT 121135Z 28007KT M07/M11 A3021 RMK A01 T10691113  RH  071%=      5-min Rain = 0
KTAT 121140Z 28007KT M07/M11 A3021 RMK A01 T10711114  RH  071%=      5-min Rain = 0
KTAT 121145Z 29008KT M07/M12 A3021 RMK A01 T10741115  RH  072%=      5-min Rain = 0
KTAT 121150Z 29007KT M08/M12 A3022 RMK A01 T10761116  RH  073%=      5-min Rain = 0
KTAT 121155Z 30007KT M08/M12 A3022 RMK A01 T10771117  RH  073%=      5-min Rain = 0
KTAT 121200Z 30008KT M08/M12 A3022 RMK A01 T10811119  RH  074%=      5-min Rain = 0
KTAT 121205Z 31008KT M08/M12 A3022 RMK A01 T10811117  RH  075%=      5-min Rain = 0
KTAT 121210Z 31008KT M08/M12 A3022 RMK A01 T10811117  RH  075%=      5-min Rain = 0
KTAT 121215Z 30008KT M08/M12 A3022 RMK A01 T10821117  RH  075%=      5-min Rain = 0
KTAT 121220Z 31008KT M08/M12 A3022 RMK A01 T10831117  RH  076%=      5-min Rain = 0
KTAT 121225Z 31008KT M08/M12 A3022 RMK A01 T10821116  RH  076%=      5-min Rain = 0
KTAT 121230Z 32007KT M08/M11 A3022 RMK A01 T10791114  RH  075%=      5-min Rain = 0
KTAT 121235Z 32008KT M08/M12 A3022 RMK A01 T10791115  RH  075%=      5-min Rain = 0
KTAT 121240Z 32007KT M08/M12 A3023 RMK A01 T10811117  RH  075%=      5-min Rain = 0
KTAT 121245Z 32007KT M08/M12 A3023 RMK A01 T10821116  RH  076%=      5-min Rain = 0
KTAT 121250Z 32007KT M08/M12 A3023 RMK A01 T10841118  RH  076%=      5-min Rain = 0
KTAT 121255Z 32007KT M09/M12 A3023 RMK A01 T10871119  RH  077%=      5-min Rain = 0
KTAT 121300Z 31008KT M09/M12 A3024 RMK A01 T10881119  RH  078%=      5-min Rain = 0
KTAT 121305Z 30008KT M09/M12 A3024 RMK A01 T10881118  RH  079%=      5-min Rain = 0
KTAT 121310Z 30008KT M09/M12 A3024 RMK A01 T10861116  RH  078%=      5-min Rain = 0
KTAT 121315Z 29007KT M08/M12 A3024 RMK A01 T10841115  RH  078%=      5-min Rain = 0
KTAT 121320Z 29007KT M08/M11 A3024 RMK A01 T10831114  RH  078%=      5-min Rain = 0
KTAT 121325Z 29007KT M08/M12 A3025 RMK A01 T10831115  RH  077%=      5-min Rain = 0
KTAT 121330Z 28005KT M09/M12 A3025 RMK A01 T10851116  RH  078%=      5-min Rain = 0
KTAT 121335Z 27004KT M09/M12 A3025 RMK A01 T10851116  RH  078%=      5-min Rain = 0
KTAT 121340Z 27005KT M09/M12 A3025 RMK A01 T10861117  RH  078%=      5-min Rain = 0
KTAT 121345Z 28005KT M09/M12 A3025 RMK A01 T10871117  RH  079%=      5-min Rain = 0
KTAT 121350Z 29005KT M09/M12 A3025 RMK A01 T10871117  RH  078%=      5-min Rain = 0
KTAT 121355Z 30006KT M09/M12 A3025 RMK A01 T10861117  RH  078%=      5-min Rain = 0
KTAT 121400Z 30006KT M09/M12 A3025 RMK A01 T10861116  RH  078%=      5-min Rain = 0
KTAT 121405Z 31007KT M08/M11 A3025 RMK A01 T10821112  RH  079%=      5-min Rain = 0
KTAT 121410Z 30007KT M08/M11 A3025 RMK A01 T10751108  RH  077%=      5-min Rain = 0
KTAT 121415Z 29005KT M07/M11 A3025 RMK A01 T10691105  RH  075%=      5-min Rain = 0
KTAT 121420Z 28003KT M06/M10 A3026 RMK A01 T10631102  RH  074%=      5-min Rain = 0
KTAT 121425Z 28004KT M06/M10 A3026 RMK A01 T10581100  RH  072%=      5-min Rain = 0
KTAT 121430Z 26004KT M05/M10 A3027 RMK A01 T10521096  RH  071%=      5-min Rain = 0
KTAT 121435Z 25002KT M05/M09 A3027 RMK A01 T10451092  RH  070%=      5-min Rain = 0
KTAT 121440Z 25003KT M04/M09 A3027 RMK A01 T10381089  RH  068%=      5-min Rain = 0
KTAT 121445Z 27003KT M03/M09 A3027 RMK A01 T10321086  RH  066%=      5-min Rain = 0
KTAT 121450Z 26003KT M02/M08 A3027 RMK A01 T10231081  RH  064%=      5-min Rain = 0
KTAT 121455Z 22001KT M01/M08 A3028 RMK A01 T10121076  RH  062%=      5-min Rain = 0
KTAT 121500Z 24002KT M00/M08 A3028 RMK A01 T10041075  RH  059%=      5-min Rain = 0
KTAT 121505Z 25003KT 00/M07 A3028 RMK A01 T00011073  RH  058%=      5-min Rain = 0
KTAT 121510Z 22003KT 01/M07 A3028 RMK A01 T00091068  RH  057%=      5-min Rain = 0
KTAT 121515Z 19002KT 02/M06 A3029 RMK A01 T00191063  RH  054%=      5-min Rain = 0
KTAT 121520Z 22003KT 03/M06 A3029 RMK A01 T00271062  RH  052%=      5-min Rain = 0
KTAT 121525Z 23003KT 03/M06 A3029 RMK A01 T00331059  RH  051%=      5-min Rain = 0
KTAT 121530Z 21002KT 04/M06 A3029 RMK A01 T00401056  RH  050%=      5-min Rain = 0
KTAT 121535Z 18002KT 05/M05 A303 RMK A01 T00511053  RH  047%=      5-min Rain = 0
KTAT 121540Z 19002KT 06/M06 A303 RMK A01 T00591057  RH  043%=      5-min Rain = 0
KTAT 121545Z 20003KT 06/M06 A3029 RMK A01 T00621063  RH  040%=      5-min Rain = 0
KTAT 121550Z 19004KT 06/M07 A303 RMK A01 T00641070  RH  038%=      5-min Rain = 0
KTAT 121555Z 19004KT 07/M07 A303 RMK A01 T00671072  RH  036%=      5-min Rain = 0
KTAT 121600Z 20005KT 07/M07 A303 RMK A01 T00701074  RH  035%=      5-min Rain = 0
KTAT 121605Z 21006KT 07/M08 A303 RMK A01 T00701077  RH  034%=      5-min Rain = 0
KTAT 121610Z 21006KT 07/M08 A303 RMK A01 T00741079  RH  033%=      5-min Rain = 0
KTAT 121615Z 21006KT 08/M08 A303 RMK A01 T00751080  RH  032%=      5-min Rain = 0
KTAT 121620Z 20007KT 08/M08 A303 RMK A01 T00801082  RH  031%=      5-min Rain = 0
KTAT 121625Z 19007G12KT 08/M08 A3031 RMK A01 T00841082  RH  030%=      5-min Rain = 0
KTAT 121630Z 21009KT 08/M09 A3031 RMK A01 T00841094  RH  027%=      5-min Rain = 0
KTAT 121635Z 20009KT 09/M09 A3031 RMK A01 T00871094  RH  027%=      5-min Rain = 0
KTAT 121640Z 21010KT 09/M10 A3031 RMK A01 T00891096  RH  026%=      5-min Rain = 0
KTAT 121645Z 20010KT 09/M10 A3031 RMK A01 T00911096  RH  025%=      5-min Rain = 0
KTAT 121650Z 20010KT 10/M10 A3031 RMK A01 T00961099  RH  024%=      5-min Rain = 0
KTAT 121655Z 21011KT 09/M10 A3031 RMK A01 T00941099  RH  024%=      5-min Rain = 0
KTAT 121700Z 21010G15KT 09/M10 A3031 RMK A01 T00931099  RH  024%=      5-min Rain = 0
KTAT 121705Z 21011KT 10/M10 A3031 RMK A01 T00961100  RH  024%=      5-min Rain = 0
KTAT 121710Z 21010KT 10/M10 A3031 RMK A01 T00971103  RH  023%=      5-min Rain = 0
KTAT 121715Z 20011KT 10/M11 A3031 RMK A01 T01001105  RH  022%=      5-min Rain = 0
KTAT 121720Z 20010KT 10/M11 A3031 RMK A01 T01011106  RH  022%=      5-min Rain = 0
KTAT 121725Z 18008G14KT 10/M11 A3031 RMK A01 T01041106  RH  022%=      5-min Rain = 0
KTAT 121730Z 19011KT 10/M11 A3031 RMK A01 T01041107  RH  021%=      5-min Rain = 0
KTAT 121735Z 20009KT 11/M11 A3031 RMK A01 T01061105  RH  021%=      5-min Rain = 0
KTAT 121740Z 21011G18KT 11/M10 A3031 RMK A01 T01081104  RH  021%=      5-min Rain = 0
KTAT 121745Z 22010G15KT 11/M11 A3031 RMK A01 T01081105  RH  021%=      5-min Rain = 0
KTAT 121750Z 20010G16KT 11/M10 A303 RMK A01 T01111104  RH  021%=      5-min Rain = 0
KTAT 121755Z 22010G15KT 11/M10 A303 RMK A01 T01111104  RH  021%=      5-min Rain = 0
KTAT 121800Z 22011G16KT 11/M10 A303 RMK A01 T01141104  RH  021%=      5-min Rain = 0
KTAT 121805Z 22011KT 12/M11 A3029 RMK A01 T01151105  RH  020%=      5-min Rain = 0
KTAT 121810Z 20011G16KT 12/M10 A3029 RMK A01 T01201104  RH  020%=      5-min Rain = 0
KTAT 121815Z 21010G18KT 12/M11 A3029 RMK A01 T01181107  RH  020%=      5-min Rain = 0
KTAT 121820Z 20011G16KT 12/M11 A3029 RMK A01 T01211108  RH  019%=      5-min Rain = 0
KTAT 121825Z 20009KT 12/M11 A3028 RMK A01 T01231113  RH  018%=      5-min Rain = 0
KTAT 121830Z 23012G17KT 12/M11 A3028 RMK A01 T01201111  RH  019%=      5-min Rain = 0
KTAT 121835Z 21010G15KT 12/M11 A3027 RMK A01 T01201110  RH  019%=      5-min Rain = 0
KTAT 121840Z 20011G16KT 12/M12 A3027 RMK A01 T01211116  RH  018%=      5-min Rain = 0
KTAT 121845Z 22010G16KT 12/M12 A3027 RMK A01 T01221116  RH  018%=      5-min Rain = 0
KTAT 121850Z 21011G16KT 12/M12 A3027 RMK A01 T01221122  RH  017%=      5-min Rain = 0
KTAT 121855Z 22012KT 13/M13 A3026 RMK A01 T01261126  RH  016%=      5-min Rain = 0
KTAT 121900Z 22009G17KT 13/M13 A3026 RMK A01 T01261129  RH  016%=      5-min Rain = 0
KTAT 121905Z 23013KT 13/M13 A3025 RMK A01 T01291130  RH  015%=      5-min Rain = 0
KTAT 121910Z 23008KT 13/M14 A3025 RMK A01 T01251137  RH  015%=      5-min Rain = 0
KTAT 121915Z 22011KT 13/M14 A3025 RMK A01 T01281135  RH  015%=      5-min Rain = 0
KTAT 121920Z 21008G15KT 13/M13 A3024 RMK A01 T01311134  RH  014%=      5-min Rain = 0
KTAT 121925Z 21011G17KT 13/M13 A3024 RMK A01 T01331133  RH  014%=      5-min Rain = 0
KTAT 121930Z 22010KT 13/M14 A3023 RMK A01 T01321137  RH  014%=      5-min Rain = 0
KTAT 121935Z 20009G16KT 13/M14 A3023 RMK A01 T01321135  RH  014%=      5-min Rain = 0
KTAT 121940Z 21010KT 14/M13 A3023 RMK A01 T01381131  RH  014%=      5-min Rain = 0
KTAT 121945Z 20009G14KT 14/M13 A3023 RMK A01 T01371134  RH  014%=      5-min Rain = 0
KTAT 121950Z 19011KT 14/M13 A3022 RMK A01 T01391131  RH  014%=      5-min Rain = 0
KTAT 121955Z 21010G15KT 14/M14 A3022 RMK A01 T01391137  RH  013%=      5-min Rain = 0
KTAT 122000Z 21009G16KT 14/M14 A3022 RMK A01 T01391136  RH  013%=      5-min Rain = 0
KTAT 122005Z 21009G14KT 14/M14 A3022 RMK A01 T01381137  RH  013%=      5-min Rain = 0
KTAT 122010Z 23010KT 14/M14 A3022 RMK A01 T01351139  RH  013%=      5-min Rain = 0
KTAT 122015Z 23009G14KT 14/M14 A3022 RMK A01 T01381140  RH  013%=      5-min Rain = 0
KTAT 122020Z 20009G15KT 14/M14 A3022 RMK A01 T01401137  RH  013%=      5-min Rain = 0
KTAT 122025Z 20010KT 15/M14 A3022 RMK A01 T01451135  RH  013%=      5-min Rain = 0
KTAT 122030Z 20008G15KT 15/M14 A3022 RMK A01 T01451136  RH  013%=      5-min Rain = 0
KTAT 122035Z 20006G12KT 15/M13 A3021 RMK A01 T01481134  RH  013%=      5-min Rain = 0
KTAT 122040Z 23011G17KT 15/M14 A3021 RMK A01 T01471142  RH  012%=      5-min Rain = 0
KTAT 122045Z 21011G16KT 15/M14 A3021 RMK A01 T01481141  RH  012%=      5-min Rain = 0
KTAT 122050Z 23010KT 15/M14 A3021 RMK A01 T01451142  RH  012%=      5-min Rain = 0
KTAT 122055Z 23007G12KT 14/M14 A3021 RMK A01 T01421141  RH  013%=      5-min Rain = 0
KTAT 122100Z 22011KT 15/M14 A3021 RMK A01 T01461143  RH  012%=      5-min Rain = 0
KTAT 122105Z 21007G12KT 15/M14 A3021 RMK A01 T01461142  RH  012%=      5-min Rain = 0
KTAT 122110Z 21009KT 15/M14 A3021 RMK A01 T01511143  RH  012%=      5-min Rain = 0
KTAT 122115Z 23007KT 15/M14 A3021 RMK A01 T01521144  RH  012%=      5-min Rain = 0
KTAT 122120Z 21008G13KT 15/M14 A3021 RMK A01 T01521144  RH  012%=      5-min Rain = 0
KTAT 122125Z 23009KT 15/M15 A3021 RMK A01 T01491150  RH  011%=      5-min Rain = 0
KTAT 122130Z 20008G13KT 15/M15 A3021 RMK A01 T01521149  RH  011%=      5-min Rain = 0
KTAT 122135Z 21008G13KT 15/M15 A3021 RMK A01 T01511149  RH  011%=      5-min Rain = 0
KTAT 122140Z 21009KT 15/M15 A302 RMK A01 T01491150  RH  011%=      5-min Rain = 0
KTAT 122145Z 21008G13KT 15/M15 A3021 RMK A01 T01531149  RH  011%=      5-min Rain = 0
KTAT 122150Z 20007G12KT 15/M15 A3021 RMK A01 T01541150  RH  011%=      5-min Rain = 0
KTAT 122155Z 21007KT 16/M15 A3021 RMK A01 T01551149  RH  011%=      5-min Rain = 0
KTAT 122200Z 21008KT 16/M15 A3021 RMK A01 T01571152  RH  010%=      5-min Rain = 0
KTAT 122205Z 22006KT 16/M15 A3021 RMK A01 T01551153  RH  010%=      5-min Rain = 0
KTAT 122210Z 24008G13KT 15/M16 A3021 RMK A01 T01511158  RH  010%=      5-min Rain = 0
KTAT 122215Z 23006G11KT 15/M16 A3021 RMK A01 T01491158  RH  010%=      5-min Rain = 0
KTAT 122220Z 24008KT 15/M16 A3021 RMK A01 T01501156  RH  011%=      5-min Rain = 0
KTAT 122225Z 21005KT 15/M16 A302 RMK A01 T01531156  RH  010%=      5-min Rain = 0
KTAT 122230Z 22010KT 15/M16 A302 RMK A01 T01541158  RH  010%=      5-min Rain = 0
KTAT 122235Z 24008KT 15/M16 A3021 RMK A01 T01481162  RH  010%=      5-min Rain = 0
KTAT 122240Z 21007KT 15/M16 A3021 RMK A01 T01511161  RH  010%=      5-min Rain = 0
KTAT 122245Z 23009KT 15/M16 A3021 RMK A01 T01521161  RH  010%=      5-min Rain = 0
KTAT 122250Z 24009KT 15/M16 A3021 RMK A01 T01511164  RH  010%=      5-min Rain = 0
KTAT 122255Z 25007KT 15/M16 A3021 RMK A01 T01481164  RH  010%=      5-min Rain = 0
KTAT 122300Z 23008KT 15/M16 A3021 RMK A01 T01491162  RH  010%=      5-min Rain = 0
KTAT 122305Z 23007KT 15/M16 A3021 RMK A01 T01471161  RH  010%=      5-min Rain = 0
KTAT 122310Z 24006KT 14/M16 A3021 RMK A01 T01441161  RH  010%=      5-min Rain = 0
KTAT 122315Z 24009KT 14/M17 A3021 RMK A01 T01431166  RH  010%=      5-min Rain = 0
KTAT 122320Z 23007KT 14/M17 A3021 RMK A01 T01391168  RH  010%=      5-min Rain = 0
KTAT 122325Z 21008KT 14/M16 A3021 RMK A01 T01361161  RH  011%=      5-min Rain = 0
KTAT 122330Z 20008KT 14/M16 A3021 RMK A01 T01361161  RH  011%=      5-min Rain = 0
KTAT 122335Z 20009KT 13/M16 A3021 RMK A01 T01311164  RH  011%=      5-min Rain = 0
KTAT 122340Z 21008KT 13/M16 A3021 RMK A01 T01251161  RH  012%=      5-min Rain = 0
KTAT 122345Z 21007KT 12/M16 A3021 RMK A01 T01191161  RH  012%=      5-min Rain = 0
KTAT 122350Z 20008KT 12/M16 A3021 RMK A01 T01151162  RH  013%=      5-min Rain = 0
KTAT 122355Z 20008KT 11/M16 A3021 RMK A01 T01121159  RH  013%=      5-min Rain = 0
KTAT 130000Z 20008KT 11/M16 A302 RMK A01 T01081158  RH  014%=      5-min Rain = 0
KTAT 130005Z 20008KT 10/M16 A302 RMK A01 T01031157  RH  014%=      5-min Rain = 0
KTAT 130010Z 20008KT 10/M16 A302 RMK A01 T00991157  RH  015%=      5-min Rain = 0
KTAT 130015Z 20007KT 10/M16 A3021 RMK A01 T00991155  RH  015%=      5-min Rain = 0
KTAT 130020Z 20008KT 10/M15 A3021 RMK A01 T00951154  RH  015%=      5-min Rain = 0
KTAT 130025Z 20009KT 09/M16 A3021 RMK A01 T00901155  RH  016%=      5-min Rain = 0
KTAT 130030Z 21009KT 09/M16 A3021 RMK A01 T00861155  RH  016%=      5-min Rain = 0
KTAT 130035Z 21009KT 08/M15 A3022 RMK A01 T00781153  RH  017%=      5-min Rain = 0
KTAT 130040Z 21009KT 07/M15 A3022 RMK A01 T00701148  RH  019%=      5-min Rain = 0
KTAT 130045Z 21009KT 06/M15 A3022 RMK A01 T00641147  RH  020%=      5-min Rain = 0
KTAT 130050Z 21008KT 06/M15 A3022 RMK A01 T00571148  RH  021%=      5-min Rain = 0
KTAT 130055Z 21007KT 05/M15 A3022 RMK A01 T00511149  RH  022%=      5-min Rain = 0
KTAT 130100Z 20008KT 05/M15 A3022 RMK A01 T00451149  RH  023%=      5-min Rain = 0
KTAT 130105Z 21008KT 04/M15 A3023 RMK A01 T00391150  RH  023%=      5-min Rain = 0
KTAT 130110Z 21009KT 03/M15 A3023 RMK A01 T00321149  RH  025%=      5-min Rain = 0
KTAT 130115Z 21010KT 03/M15 A3022 RMK A01 T00251150  RH  026%=      5-min Rain = 0
KTAT 130120Z 21010KT 02/M15 A3023 RMK A01 T00201148  RH  027%=      5-min Rain = 0
KTAT 130125Z 21010KT 02/M15 A3022 RMK A01 T00191146  RH  028%=      5-min Rain = 0
KTAT 130130Z 21010KT 02/M15 A3022 RMK A01 T00171146  RH  028%=      5-min Rain = 0
KTAT 130135Z 20011KT 01/M14 A3022 RMK A01 T00141144  RH  030%=      5-min Rain = 0
KTAT 130140Z 20011KT 02/M14 A3022 RMK A01 T00151142  RH  030%=      5-min Rain = 0
KTAT 130145Z 21011KT 02/M14 A3022 RMK A01 T00171141  RH  030%=      5-min Rain = 0
KTAT 130150Z 21011KT 02/M14 A3022 RMK A01 T00201138  RH  030%=      5-min Rain = 0
KTAT 130155Z 20010KT 03/M14 A3022 RMK A01 T00251137  RH  029%=      5-min Rain = 0
KTAT 130200Z 20009KT 03/M14 A3022 RMK A01 T00261137  RH  029%=      5-min Rain = 0
KTAT 130205Z 20010KT 03/M14 A3023 RMK A01 T00251135  RH  029%=      5-min Rain = 0
KTAT 130210Z 20010KT 03/M13 A3023 RMK A01 T00271134  RH  029%=      5-min Rain = 0
KTAT 130215Z 20010KT 03/M14 A3023 RMK A01 T00261136  RH  029%=      5-min Rain = 0
KTAT 130220Z 19010KT 02/M14 A3023 RMK A01 T00151138  RH  031%=      5-min Rain = 0
KTAT 130225Z 20010KT 01/M14 A3023 RMK A01 T00091137  RH  032%=      5-min Rain = 0
KTAT 130230Z 20010KT 01/M14 A3023 RMK A01 T00061137  RH  033%=      5-min Rain = 0
KTAT 130235Z 19010KT 00/M14 A3023 RMK A01 T00041136  RH  034%=      5-min Rain = 0
KTAT 130240Z 19010KT 00/M13 A3022 RMK A01 T00021134  RH  035%=      5-min Rain = 0
KTAT 130245Z 19010KT 00/M13 A3022 RMK A01 T00041132  RH  035%=      5-min Rain = 0
KTAT 130250Z 18010KT 01/M13 A3022 RMK A01 T00071131  RH  035%=      5-min Rain = 0
KTAT 130255Z 18010KT 01/M13 A3022 RMK A01 T00081128  RH  035%=      5-min Rain = 0
KTAT 130300Z 18010KT 01/M13 A3021 RMK A01 T00071128  RH  035%=      5-min Rain = 0
KTAT 130305Z 18011KT 01/M13 A3021 RMK A01 T00061128  RH  036%=      5-min Rain = 0
KTAT 130310Z 18011KT 01/M13 A3021 RMK A01 T00051129  RH  036%=      5-min Rain = 0
KTAT 130315Z 18010KT 00/M13 A3021 RMK A01 T00041127  RH  036%=      5-min Rain = 0
KTAT 130320Z 18010KT 00/M12 A3021 RMK A01 T00031124  RH  037%=      5-min Rain = 0
KTAT 130325Z 19010KT 00/M12 A3021 RMK A01 T00031122  RH  038%=      5-min Rain = 0
KTAT 130330Z 19010KT 01/M12 A3021 RMK A01 T00051120  RH  038%=      5-min Rain = 0
KTAT 130335Z 19010KT 01/M12 A3021 RMK A01 T00081119  RH  038%=      5-min Rain = 0
KTAT 130340Z 19010KT 01/M12 A3021 RMK A01 T00091117  RH  038%=      5-min Rain = 0
KTAT 130345Z 19010KT 01/M12 A3021 RMK A01 T00091116  RH  038%=      5-min Rain = 0
KTAT 130350Z 19010KT 01/M12 A3021 RMK A01 T00081115  RH  039%=      5-min Rain = 0
KTAT 130355Z 20010KT 01/M12 A3021 RMK A01 T00071115  RH  039%=      5-min Rain = 0
KTAT 130400Z 20009KT 01/M12 A3021 RMK A01 T00051116  RH  040%=      5-min Rain = 0
KTAT 130405Z 20009KT 00/M12 A3021 RMK A01 T00021116  RH  040%=      5-min Rain = 0
KTAT 130410Z 20009KT 00/12 A3021 RMK A01 T00000-115  RH  041%=      5-min Rain = 0
KTAT 130415Z 19008KT M00/M12 A3022 RMK A01 T10021115  RH  042%=      5-min Rain = 0
KTAT 130420Z 19008KT M01/M12 A3022 RMK A01 T10051115  RH  043%=      5-min Rain = 0
KTAT 130425Z 19008KT M01/M11 A3022 RMK A01 T10071113  RH  044%=      5-min Rain = 0
KTAT 130430Z 20008KT M01/M11 A3022 RMK A01 T10091113  RH  045%=      5-min Rain = 0
KTAT 130435Z 20008KT M01/M11 A3022 RMK A01 T10121114  RH  046%=      5-min Rain = 0
KTAT 130440Z 20008KT M02/M11 A3023 RMK A01 T10151114  RH  046%=      5-min Rain = 0
KTAT 130445Z 19007KT M02/M12 A3023 RMK A01 T10181116  RH  047%=      5-min Rain = 0
KTAT 130450Z 19007KT M02/M12 A3023 RMK A01 T10191116  RH  047%=      5-min Rain = 0
KTAT 130455Z 19007KT M02/M12 A3023 RMK A01 T10221116  RH  048%=      5-min Rain = 0
KTAT 130500Z 20007KT M02/M12 A3023 RMK A01 T10231116  RH  049%=      5-min Rain = 0
KTAT 130505Z 19008KT M02/M11 A3022 RMK A01 T10221114  RH  049%=      5-min Rain = 0
KTAT 130510Z 20009KT M02/M11 A3022 RMK A01 T10191111  RH  049%=      5-min Rain = 0
KTAT 130515Z 20010KT M02/M11 A3022 RMK A01 T10181110  RH  049%=      5-min Rain = 0
KTAT 130520Z 20010KT M02/M11 A3022 RMK A01 T10221111  RH  050%=      5-min Rain = 0
KTAT 130525Z 19010KT M02/M11 A3022 RMK A01 T10221108  RH  052%=      5-min Rain = 0
KTAT 130530Z 19009KT M02/M11 A3022 RMK A01 T10191106  RH  051%=      5-min Rain = 0
KTAT 130535Z 19009KT M02/M11 A3022 RMK A01 T10171105  RH  051%=      5-min Rain = 0
KTAT 130540Z 19008KT M02/M11 A3021 RMK A01 T10151105  RH  050%=      5-min Rain = 0
KTAT 130545Z 19009KT M02/M11 A3021 RMK A01 T10151105  RH  050%=      5-min Rain = 0
KTAT 130550Z 19007KT M02/M11 A3021 RMK A01 T10171105  RH  051%=      5-min Rain = 0
KTAT 130555Z 20007KT M02/M11 A3021 RMK A01 T10211106  RH  052%=      5-min Rain = 0

Page generated in 0.009 seconds.